Ambler, AK

7:32 AM AKDT on September 02, 2014 (GMT -0800)
Ambler | Change Station
CLOSE
Current Station
Airport
Location: Ambler,
Elevation: 289 ft
Nearby Weather Stations

Elev 289 ft 67.11 °N, 157.86 °W | Updated 16 minutes ago

Partly Cloudy
Partly Cloudy
28 °F
Feels Like 28 °F
N
0
Wind Variable Wind from North

Today
High -- | Low -- °F
--% Chance of Precip.
Yesterday
High -- | Low -- °F
Precip. -- in
7:06 AM 9:53 PM
First Quarter, 52% visible
Pressure 29.73 in
Visibility 10.0 miles
Clouds Few 2100 ft
Dew Point 27 °F
Humidity 93%
Rainfall 0.00 in
Snow Depth Not available.
UV 0 out of 12
Pollen Not available.
Air Quality Not available.
Flu Activity Not available.
METAR PAFM 021516Z AUTO 00000KT 10SM FEW021 M02/M03 A2973 RMK AO1

More Conditions Fewer Conditions

Pressure 29.73 in
Visibility 10.0 miles
Clouds Few 2100 ft
Dew Point 27 °F
Humidity 93%
Rainfall 0.00 in
Snow Depth Not available.
UV 0 out of 12
Pollen Not available.
Air Quality Not available.
Flu Activity Not available.
METAR PAFM 021516Z AUTO 00000KT 10SM FEW021 M02/M03 A2973 RMK AO1

More Conditions Fewer Conditions

10-Day Weather Forecast

Almanac

Astronomy

Sep. 02, 2014 Rise Set
Actual Time 7:06 AM AKDT 9:53 PM AKDT
Civil Twilight 6:05 AM AKDT 10:53 PM AKDT
Nautical Twilight 4:32 AM AKDT 12:24 AM AKDT
Astronomical Twilight Sun does not rise Sun does not rise
Moon 6:27 PM AKDT 11:32 PM AKDT
Length of Visible Light 16h 48m
Length of Day
14h 46m
Tomorrow will be 7m 32s shorter.
First Quarter, 52% of the Moon is Illuminated
Today
First Quarter
Sep 8
Full
Sep 15
Last Quarter
Sep 24
New
Oct 1
First Quarter

Today's Extremes

State Highs State Lows

Community

WunderPhotos

Upload Photos

1,749,700 photos uploaded!

Nearby

Snow Depth

Station Depth Elevation
Gobblers Knob 0 in 2030 ft
Coldfoot 1 in 1040 ft
Atigun Pass 9 in 4800 ft
Rocky Point 4 in 500 ft
Imnaviat Creek 32 in 3050 ft

Earthquake Activity

City Distance Mag. Time & Date
No recent earthquake activity has been reported nearby.
Minimum magnitude displayed is 2.5.

Coastal Water Temperatures

Place Temperature
No Stations Reporting

Nearby Weather Stations